sensor_id;sensor_type;location;lat;lon;timestamp;P1;durP1;ratioP1;P2;durP2;ratioP2
14799;SDS011;7491;57.750;11.970;2022-12-18T00:01:15;53.58;;;22.20;;
14799;SDS011;7491;57.750;11.970;2022-12-18T00:03:43;56.78;;;19.13;;
14799;SDS011;7491;57.750;11.970;2022-12-18T00:06:10;56.63;;;22.40;;
14799;SDS011;7491;57.750;11.970;2022-12-18T00:08:38;53.00;;;21.52;;
14799;SDS011;7491;57.750;11.970;2022-12-18T00:11:05;46.78;;;18.45;;
14799;SDS011;7491;57.750;11.970;2022-12-18T00:13:33;64.70;;;29.10;;
14799;SDS011;7491;57.750;11.970;2022-12-18T00:16:01;65.95;;;24.80;;
14799;SDS011;7491;57.750;11.970;2022-12-18T00:18:30;62.35;;;26.48;;
14799;SDS011;7491;57.750;11.970;2022-12-18T00:20:58;53.10;;;22.13;;
14799;SDS011;7491;57.750;11.970;2022-12-18T00:23:25;52.30;;;20.10;;
14799;SDS011;7491;57.750;11.970;2022-12-18T00:25:52;53.20;;;22.10;;
14799;SDS011;7491;57.750;11.970;2022-12-18T00:28:19;52.80;;;20.38;;
14799;SDS011;7491;57.750;11.970;2022-12-18T00:30:45;52.10;;;20.35;;
14799;SDS011;7491;57.750;11.970;2022-12-18T00:33:12;49.08;;;18.90;;
14799;SDS011;7491;57.750;11.970;2022-12-18T00:35:40;49.55;;;18.05;;
14799;SDS011;7491;57.750;11.970;2022-12-18T00:38:07;45.67;;;18.42;;
14799;SDS011;7491;57.750;11.970;2022-12-18T00:40:33;50.17;;;20.52;;
14799;SDS011;7491;57.750;11.970;2022-12-18T00:43:00;55.03;;;21.80;;
14799;SDS011;7491;57.750;11.970;2022-12-18T00:45:26;41.42;;;18.58;;
14799;SDS011;7491;57.750;11.970;2022-12-18T00:47:54;52.80;;;19.50;;
14799;SDS011;7491;57.750;11.970;2022-12-18T00:50:22;54.67;;;21.15;;
14799;SDS011;7491;57.750;11.970;2022-12-18T00:52:52;38.10;;;17.08;;
14799;SDS011;7491;57.750;11.970;2022-12-18T00:55:18;45.47;;;18.27;;
14799;SDS011;7491;57.750;11.970;2022-12-18T00:57:45;44.25;;;18.08;;
14799;SDS011;7491;57.750;11.970;2022-12-18T01:00:13;46.67;;;19.27;;
14799;SDS011;7491;57.750;11.970;2022-12-18T01:02:41;40.55;;;16.05;;
14799;SDS011;7491;57.750;11.970;2022-12-18T01:05:08;39.22;;;17.25;;
14799;SDS011;7491;57.750;11.970;2022-12-18T01:07:35;46.83;;;18.30;;
14799;SDS011;7491;57.750;11.970;2022-12-18T01:10:04;43.33;;;16.17;;
14799;SDS011;7491;57.750;11.970;2022-12-18T01:12:32;49.38;;;20.90;;
14799;SDS011;7491;57.750;11.970;2022-12-18T01:14:59;46.13;;;17.35;;
14799;SDS011;7491;57.750;11.970;2022-12-18T01:17:26;53.63;;;19.65;;
14799;SDS011;7491;57.750;11.970;2022-12-18T01:19:52;47.63;;;20.70;;
14799;SDS011;7491;57.750;11.970;2022-12-18T01:22:19;46.63;;;17.77;;
14799;SDS011;7491;57.750;11.970;2022-12-18T01:24:46;42.65;;;18.67;;
14799;SDS011;7491;57.750;11.970;2022-12-18T01:27:14;30.23;;;11.07;;
14799;SDS011;7491;57.750;11.970;2022-12-18T01:29:41;47.03;;;18.52;;
14799;SDS011;7491;57.750;11.970;2022-12-18T01:32:08;46.47;;;18.23;;
14799;SDS011;7491;57.750;11.970;2022-12-18T01:34:35;43.42;;;19.10;;
14799;SDS011;7491;57.750;11.970;2022-12-18T01:37:02;51.80;;;20.17;;
14799;SDS011;7491;57.750;11.970;2022-12-18T01:39:29;57.63;;;23.20;;
14799;SDS011;7491;57.750;11.970;2022-12-18T01:41:56;43.58;;;18.65;;
14799;SDS011;7491;57.750;11.970;2022-12-18T01:47:32;65.00;;;29.02;;
14799;SDS011;7491;57.750;11.970;2022-12-18T01:50:04;46.35;;;19.90;;
14799;SDS011;7491;57.750;11.970;2022-12-18T01:52:34;57.20;;;19.48;;
14799;SDS011;7491;57.750;11.970;2022-12-18T01:55:02;33.50;;;13.60;;
14799;SDS011;7491;57.750;11.970;2022-12-18T01:57:31;45.67;;;19.33;;
14799;SDS011;7491;57.750;11.970;2022-12-18T01:59:59;40.60;;;15.05;;
14799;SDS011;7491;57.750;11.970;2022-12-18T02:02:30;42.10;;;17.38;;
14799;SDS011;7491;57.750;11.970;2022-12-18T02:04:56;42.17;;;16.80;;
14799;SDS011;7491;57.750;11.970;2022-12-18T02:07:26;43.10;;;16.20;;
14799;SDS011;7491;57.750;11.970;2022-12-18T02:10:03;41.33;;;15.82;;
14799;SDS011;7491;57.750;11.970;2022-12-18T02:12:35;34.88;;;13.35;;
14799;SDS011;7491;57.750;11.970;2022-12-18T02:15:10;44.95;;;15.68;;
14799;SDS011;7491;57.750;11.970;2022-12-18T02:17:43;52.13;;;19.58;;
14799;SDS011;7491;57.750;11.970;2022-12-18T02:20:17;52.65;;;18.83;;
14799;SDS011;7491;57.750;11.970;2022-12-18T02:22:53;43.28;;;17.02;;
14799;SDS011;7491;57.750;11.970;2022-12-18T02:25:38;44.03;;;15.63;;
14799;SDS011;7491;57.750;11.970;2022-12-18T02:28:15;40.97;;;14.52;;
14799;SDS011;7491;57.750;11.970;2022-12-18T02:30:46;61.08;;;18.88;;
14799;SDS011;7491;57.750;11.970;2022-12-18T02:33:15;48.53;;;15.45;;
14799;SDS011;7491;57.750;11.970;2022-12-18T02:35:43;43.90;;;17.25;;
14799;SDS011;7491;57.750;11.970;2022-12-18T02:38:11;44.05;;;15.50;;
14799;SDS011;7491;57.750;11.970;2022-12-18T02:40:39;46.58;;;15.45;;
14799;SDS011;7491;57.750;11.970;2022-12-18T02:43:08;38.15;;;15.18;;
14799;SDS011;7491;57.750;11.970;2022-12-18T02:45:45;44.50;;;14.95;;
14799;SDS011;7491;57.750;11.970;2022-12-18T02:48:13;46.05;;;14.38;;
14799;SDS011;7491;57.750;11.970;2022-12-18T02:50:41;45.13;;;15.40;;
14799;SDS011;7491;57.750;11.970;2022-12-18T02:53:16;42.20;;;15.60;;
14799;SDS011;7491;57.750;11.970;2022-12-18T02:55:52;40.25;;;15.88;;
14799;SDS011;7491;57.750;11.970;2022-12-18T02:58:26;35.67;;;13.70;;
14799;SDS011;7491;57.750;11.970;2022-12-18T03:01:01;23.52;;;10.13;;
14799;SDS011;7491;57.750;11.970;2022-12-18T03:03:35;42.55;;;14.40;;
14799;SDS011;7491;57.750;11.970;2022-12-18T03:06:06;38.03;;;14.23;;
14799;SDS011;7491;57.750;11.970;2022-12-18T03:08:37;39.58;;;16.30;;
14799;SDS011;7491;57.750;11.970;2022-12-18T03:11:08;38.38;;;14.30;;
14799;SDS011;7491;57.750;11.970;2022-12-18T03:13:37;37.88;;;13.90;;
14799;SDS011;7491;57.750;11.970;2022-12-18T03:16:11;39.67;;;14.05;;
14799;SDS011;7491;57.750;11.970;2022-12-18T03:18:45;38.85;;;12.75;;
14799;SDS011;7491;57.750;11.970;2022-12-18T03:21:15;38.33;;;12.77;;
14799;SDS011;7491;57.750;11.970;2022-12-18T03:23:47;43.58;;;14.80;;
14799;SDS011;7491;57.750;11.970;2022-12-18T03:26:18;38.85;;;14.60;;
14799;SDS011;7491;57.750;11.970;2022-12-18T03:28:50;38.83;;;15.50;;
14799;SDS011;7491;57.750;11.970;2022-12-18T03:31:21;30.65;;;10.30;;
14799;SDS011;7491;57.750;11.970;2022-12-18T03:33:51;41.40;;;14.25;;
14799;SDS011;7491;57.750;11.970;2022-12-18T03:36:19;43.75;;;15.35;;
14799;SDS011;7491;57.750;11.970;2022-12-18T03:38:46;16.88;;;6.55;;
14799;SDS011;7491;57.750;11.970;2022-12-18T03:41:15;42.70;;;14.23;;
14799;SDS011;7491;57.750;11.970;2022-12-18T03:43:47;40.25;;;15.00;;
14799;SDS011;7491;57.750;11.970;2022-12-18T03:46:17;42.65;;;14.50;;
14799;SDS011;7491;57.750;11.970;2022-12-18T03:48:56;35.35;;;13.63;;
14799;SDS011;7491;57.750;11.970;2022-12-18T03:51:28;40.03;;;15.35;;
14799;SDS011;7491;57.750;11.970;2022-12-18T03:54:04;44.17;;;15.25;;
14799;SDS011;7491;57.750;11.970;2022-12-18T03:56:33;47.42;;;23.50;;
14799;SDS011;7491;57.750;11.970;2022-12-18T03:59:04;44.85;;;15.63;;
14799;SDS011;7491;57.750;11.970;2022-12-18T04:01:37;54.55;;;20.05;;
14799;SDS011;7491;57.750;11.970;2022-12-18T04:04:06;41.40;;;14.50;;
14799;SDS011;7491;57.750;11.970;2022-12-18T04:06:36;44.28;;;17.38;;
14799;SDS011;7491;57.750;11.970;2022-12-18T04:09:04;46.92;;;17.85;;
14799;SDS011;7491;57.750;11.970;2022-12-18T04:11:32;45.15;;;16.17;;
14799;SDS011;7491;57.750;11.970;2022-12-18T04:13:58;42.05;;;13.48;;
14799;SDS011;7491;57.750;11.970;2022-12-18T04:16:26;39.30;;;14.25;;
14799;SDS011;7491;57.750;11.970;2022-12-18T04:18:54;49.47;;;15.80;;
14799;SDS011;7491;57.750;11.970;2022-12-18T04:21:21;44.60;;;15.27;;
14799;SDS011;7491;57.750;11.970;2022-12-18T04:23:48;54.17;;;18.88;;
14799;SDS011;7491;57.750;11.970;2022-12-18T04:26:14;42.20;;;14.63;;
14799;SDS011;7491;57.750;11.970;2022-12-18T04:28:41;46.05;;;16.08;;
14799;SDS011;7491;57.750;11.970;2022-12-18T04:31:08;39.47;;;14.85;;
14799;SDS011;7491;57.750;11.970;2022-12-18T04:33:35;43.20;;;13.45;;
14799;SDS011;7491;57.750;11.970;2022-12-18T04:36:03;39.40;;;14.38;;
14799;SDS011;7491;57.750;11.970;2022-12-18T04:38:31;42.95;;;13.35;;
14799;SDS011;7491;57.750;11.970;2022-12-18T04:40:57;38.70;;;13.95;;
14799;SDS011;7491;57.750;11.970;2022-12-18T04:43:24;45.40;;;14.13;;
14799;SDS011;7491;57.750;11.970;2022-12-18T04:45:51;47.00;;;13.20;;
14799;SDS011;7491;57.750;11.970;2022-12-18T04:48:17;38.35;;;14.00;;
14799;SDS011;7491;57.750;11.970;2022-12-18T04:50:46;38.28;;;13.10;;
14799;SDS011;7491;57.750;11.970;2022-12-18T04:53:14;32.03;;;11.77;;
14799;SDS011;7491;57.750;11.970;2022-12-18T04:55:41;33.60;;;12.00;;
14799;SDS011;7491;57.750;11.970;2022-12-18T04:58:07;33.53;;;12.40;;
14799;SDS011;7491;57.750;11.970;2022-12-18T05:00:34;29.73;;;10.18;;
14799;SDS011;7491;57.750;11.970;2022-12-18T05:03:01;28.98;;;11.50;;
14799;SDS011;7491;57.750;11.970;2022-12-18T05:05:28;35.03;;;11.75;;
14799;SDS011;7491;57.750;11.970;2022-12-18T05:07:54;27.95;;;10.75;;
14799;SDS011;7491;57.750;11.970;2022-12-18T05:10:22;37.10;;;13.45;;
14799;SDS011;7491;57.750;11.970;2022-12-18T05:12:49;21.65;;;10.13;;
14799;SDS011;7491;57.750;11.970;2022-12-18T05:15:26;22.45;;;9.98;;
14799;SDS011;7491;57.750;11.970;2022-12-18T05:17:53;24.85;;;10.90;;
14799;SDS011;7491;57.750;11.970;2022-12-18T05:20:20;22.30;;;9.13;;
14799;SDS011;7491;57.750;11.970;2022-12-18T05:22:47;25.08;;;8.63;;
14799;SDS011;7491;57.750;11.970;2022-12-18T05:25:13;27.20;;;9.20;;
14799;SDS011;7491;57.750;11.970;2022-12-18T05:27:42;29.52;;;10.05;;
14799;SDS011;7491;57.750;11.970;2022-12-18T05:30:09;26.98;;;10.15;;
14799;SDS011;7491;57.750;11.970;2022-12-18T05:32:36;24.17;;;9.02;;
14799;SDS011;7491;57.750;11.970;2022-12-18T05:35:04;23.23;;;9.38;;
14799;SDS011;7491;57.750;11.970;2022-12-18T05:37:32;24.20;;;10.00;;
14799;SDS011;7491;57.750;11.970;2022-12-18T05:39:58;21.85;;;9.50;;
14799;SDS011;7491;57.750;11.970;2022-12-18T05:42:25;20.20;;;6.72;;
14799;SDS011;7491;57.750;11.970;2022-12-18T05:44:53;21.67;;;7.13;;
14799;SDS011;7491;57.750;11.970;2022-12-18T05:47:20;20.85;;;6.97;;
14799;SDS011;7491;57.750;11.970;2022-12-18T05:49:47;19.70;;;7.45;;
14799;SDS011;7491;57.750;11.970;2022-12-18T05:52:14;19.00;;;7.00;;
14799;SDS011;7491;57.750;11.970;2022-12-18T05:54:40;18.23;;;6.10;;
14799;SDS011;7491;57.750;11.970;2022-12-18T05:57:07;18.05;;;6.43;;
14799;SDS011;7491;57.750;11.970;2022-12-18T05:59:34;27.73;;;12.82;;
14799;SDS011;7491;57.750;11.970;2022-12-18T06:02:02;21.85;;;8.73;;
14799;SDS011;7491;57.750;11.970;2022-12-18T06:04:29;22.92;;;7.45;;
14799;SDS011;7491;57.750;11.970;2022-12-18T06:06:57;25.10;;;8.43;;
14799;SDS011;7491;57.750;11.970;2022-12-18T06:09:23;20.27;;;6.28;;
14799;SDS011;7491;57.750;11.970;2022-12-18T06:11:51;20.40;;;7.60;;
14799;SDS011;7491;57.750;11.970;2022-12-18T06:14:18;19.65;;;6.55;;
14799;SDS011;7491;57.750;11.970;2022-12-18T06:16:45;20.02;;;6.90;;
14799;SDS011;7491;57.750;11.970;2022-12-18T06:19:15;16.67;;;6.18;;
14799;SDS011;7491;57.750;11.970;2022-12-18T06:21:43;17.73;;;7.68;;
14799;SDS011;7491;57.750;11.970;2022-12-18T06:24:09;17.60;;;6.88;;
14799;SDS011;7491;57.750;11.970;2022-12-18T06:26:37;17.85;;;6.72;;
14799;SDS011;7491;57.750;11.970;2022-12-18T06:29:05;16.77;;;6.00;;
14799;SDS011;7491;57.750;11.970;2022-12-18T06:31:31;20.70;;;7.88;;
14799;SDS011;7491;57.750;11.970;2022-12-18T06:33:59;20.10;;;6.63;;
14799;SDS011;7491;57.750;11.970;2022-12-18T06:36:30;23.05;;;6.45;;
14799;SDS011;7491;57.750;11.970;2022-12-18T06:38:57;33.15;;;12.27;;
14799;SDS011;7491;57.750;11.970;2022-12-18T06:41:23;25.55;;;10.45;;
14799;SDS011;7491;57.750;11.970;2022-12-18T06:43:50;24.65;;;11.75;;
14799;SDS011;7491;57.750;11.970;2022-12-18T06:46:17;24.98;;;8.02;;
14799;SDS011;7491;57.750;11.970;2022-12-18T06:48:46;18.02;;;5.63;;
14799;SDS011;7491;57.750;11.970;2022-12-18T06:51:15;20.77;;;7.25;;
14799;SDS011;7491;57.750;11.970;2022-12-18T06:53:44;18.95;;;5.90;;
14799;SDS011;7491;57.750;11.970;2022-12-18T06:56:10;20.08;;;7.22;;
14799;SDS011;7491;57.750;11.970;2022-12-18T06:58:37;15.90;;;7.32;;
14799;SDS011;7491;57.750;11.970;2022-12-18T07:01:05;14.68;;;5.13;;
14799;SDS011;7491;57.750;11.970;2022-12-18T07:03:34;18.88;;;7.45;;
14799;SDS011;7491;57.750;11.970;2022-12-18T07:06:01;15.80;;;6.38;;
14799;SDS011;7491;57.750;11.970;2022-12-18T07:08:28;15.57;;;5.93;;
14799;SDS011;7491;57.750;11.970;2022-12-18T07:10:56;18.08;;;6.85;;
14799;SDS011;7491;57.750;11.970;2022-12-18T07:13:23;15.05;;;6.40;;
14799;SDS011;7491;57.750;11.970;2022-12-18T07:15:50;17.98;;;6.80;;
14799;SDS011;7491;57.750;11.970;2022-12-18T07:18:17;23.27;;;7.30;;
14799;SDS011;7491;57.750;11.970;2022-12-18T07:20:43;14.40;;;6.07;;
14799;SDS011;7491;57.750;11.970;2022-12-18T07:23:10;18.80;;;6.10;;
14799;SDS011;7491;57.750;11.970;2022-12-18T07:25:37;15.82;;;6.05;;
14799;SDS011;7491;57.750;11.970;2022-12-18T07:28:05;18.90;;;5.40;;
14799;SDS011;7491;57.750;11.970;2022-12-18T07:30:32;15.57;;;5.60;;
14799;SDS011;7491;57.750;11.970;2022-12-18T07:32:59;17.52;;;5.50;;
14799;SDS011;7491;57.750;11.970;2022-12-18T07:35:26;17.63;;;7.35;;
14799;SDS011;7491;57.750;11.970;2022-12-18T07:37:53;16.83;;;6.53;;
14799;SDS011;7491;57.750;11.970;2022-12-18T07:40:19;18.67;;;5.97;;
14799;SDS011;7491;57.750;11.970;2022-12-18T07:42:46;12.48;;;4.63;;
14799;SDS011;7491;57.750;11.970;2022-12-18T07:45:14;26.42;;;5.80;;
14799;SDS011;7491;57.750;11.970;2022-12-18T07:47:41;19.00;;;5.60;;
14799;SDS011;7491;57.750;11.970;2022-12-18T07:50:08;20.67;;;6.50;;
14799;SDS011;7491;57.750;11.970;2022-12-18T07:52:35;17.63;;;6.25;;
14799;SDS011;7491;57.750;11.970;2022-12-18T07:55:02;13.35;;;4.75;;
14799;SDS011;7491;57.750;11.970;2022-12-18T07:57:29;15.55;;;5.40;;
14799;SDS011;7491;57.750;11.970;2022-12-18T07:59:56;20.63;;;6.03;;
14799;SDS011;7491;57.750;11.970;2022-12-18T08:02:24;18.35;;;5.18;;
14799;SDS011;7491;57.750;11.970;2022-12-18T08:04:50;23.85;;;6.13;;
14799;SDS011;7491;57.750;11.970;2022-12-18T08:07:17;16.85;;;5.85;;
14799;SDS011;7491;57.750;11.970;2022-12-18T08:09:44;22.05;;;6.40;;
14799;SDS011;7491;57.750;11.970;2022-12-18T08:12:10;20.40;;;5.72;;
14799;SDS011;7491;57.750;11.970;2022-12-18T08:14:37;17.85;;;6.50;;
14799;SDS011;7491;57.750;11.970;2022-12-18T08:17:04;15.50;;;5.50;;
14799;SDS011;7491;57.750;11.970;2022-12-18T08:19:32;17.17;;;4.57;;
14799;SDS011;7491;57.750;11.970;2022-12-18T08:21:59;14.02;;;5.28;;
14799;SDS011;7491;57.750;11.970;2022-12-18T08:24:26;13.70;;;5.28;;
14799;SDS011;7491;57.750;11.970;2022-12-18T08:26:53;17.33;;;5.10;;
14799;SDS011;7491;57.750;11.970;2022-12-18T08:29:19;14.85;;;4.70;;
14799;SDS011;7491;57.750;11.970;2022-12-18T08:31:48;17.35;;;4.95;;
14799;SDS011;7491;57.750;11.970;2022-12-18T08:34:14;19.70;;;5.07;;
14799;SDS011;7491;57.750;11.970;2022-12-18T08:36:42;15.80;;;4.68;;
14799;SDS011;7491;57.750;11.970;2022-12-18T08:39:09;14.32;;;4.32;;
14799;SDS011;7491;57.750;11.970;2022-12-18T08:41:36;17.85;;;4.90;;
14799;SDS011;7491;57.750;11.970;2022-12-18T08:44:03;14.73;;;4.57;;
14799;SDS011;7491;57.750;11.970;2022-12-18T08:46:47;19.80;;;5.22;;
14799;SDS011;7491;57.750;11.970;2022-12-18T08:49:14;16.52;;;5.57;;
14799;SDS011;7491;57.750;11.970;2022-12-18T08:51:42;14.05;;;4.50;;
14799;SDS011;7491;57.750;11.970;2022-12-18T08:54:10;26.02;;;6.55;;
14799;SDS011;7491;57.750;11.970;2022-12-18T08:56:38;20.10;;;7.55;;
14799;SDS011;7491;57.750;11.970;2022-12-18T08:59:05;24.65;;;6.55;;
14799;SDS011;7491;57.750;11.970;2022-12-18T09:01:32;17.63;;;7.38;;
14799;SDS011;7491;57.750;11.970;2022-12-18T09:03:58;25.58;;;10.57;;
14799;SDS011;7491;57.750;11.970;2022-12-18T09:06:25;22.70;;;7.13;;
14799;SDS011;7491;57.750;11.970;2022-12-18T09:08:53;16.45;;;7.65;;
14799;SDS011;7491;57.750;11.970;2022-12-18T09:11:21;22.48;;;8.50;;
14799;SDS011;7491;57.750;11.970;2022-12-18T09:13:51;24.33;;;8.45;;
14799;SDS011;7491;57.750;11.970;2022-12-18T09:16:22;30.40;;;7.68;;
14799;SDS011;7491;57.750;11.970;2022-12-18T09:18:50;24.58;;;7.50;;
14799;SDS011;7491;57.750;11.970;2022-12-18T09:21:23;19.70;;;6.15;;
14799;SDS011;7491;57.750;11.970;2022-12-18T09:23:50;21.88;;;6.53;;
14799;SDS011;7491;57.750;11.970;2022-12-18T09:26:19;16.23;;;6.88;;
14799;SDS011;7491;57.750;11.970;2022-12-18T09:28:46;23.02;;;6.28;;
14799;SDS011;7491;57.750;11.970;2022-12-18T09:31:14;24.55;;;7.80;;
14799;SDS011;7491;57.750;11.970;2022-12-18T09:33:43;20.50;;;6.50;;
14799;SDS011;7491;57.750;11.970;2022-12-18T09:36:11;21.25;;;6.57;;
14799;SDS011;7491;57.750;11.970;2022-12-18T09:38:39;20.38;;;6.00;;
14799;SDS011;7491;57.750;11.970;2022-12-18T09:44:00;22.65;;;6.50;;
14799;SDS011;7491;57.750;11.970;2022-12-18T09:46:30;18.90;;;7.10;;
14799;SDS011;7491;57.750;11.970;2022-12-18T09:49:01;23.13;;;6.80;;
14799;SDS011;7491;57.750;11.970;2022-12-18T09:51:32;22.92;;;7.18;;
14799;SDS011;7491;57.750;11.970;2022-12-18T09:54:04;24.52;;;6.68;;
14799;SDS011;7491;57.750;11.970;2022-12-18T09:56:36;25.92;;;7.00;;
14799;SDS011;7491;57.750;11.970;2022-12-18T09:59:13;24.50;;;8.57;;
14799;SDS011;7491;57.750;11.970;2022-12-18T10:01:45;24.02;;;6.97;;
14799;SDS011;7491;57.750;11.970;2022-12-18T10:04:12;20.95;;;6.75;;
14799;SDS011;7491;57.750;11.970;2022-12-18T10:06:39;15.95;;;5.65;;
14799;SDS011;7491;57.750;11.970;2022-12-18T10:09:14;19.90;;;6.10;;
14799;SDS011;7491;57.750;11.970;2022-12-18T10:11:53;19.73;;;6.35;;
14799;SDS011;7491;57.750;11.970;2022-12-18T10:14:30;19.23;;;5.63;;
14799;SDS011;7491;57.750;11.970;2022-12-18T10:17:05;22.60;;;6.15;;
14799;SDS011;7491;57.750;11.970;2022-12-18T10:19:42;20.58;;;6.20;;
14799;SDS011;7491;57.750;11.970;2022-12-18T10:22:19;18.88;;;6.00;;
14799;SDS011;7491;57.750;11.970;2022-12-18T10:24:55;17.48;;;5.57;;
14799;SDS011;7491;57.750;11.970;2022-12-18T10:27:29;24.90;;;6.40;;
14799;SDS011;7491;57.750;11.970;2022-12-18T10:29:56;15.55;;;5.40;;
14799;SDS011;7491;57.750;11.970;2022-12-18T10:32:25;17.75;;;5.03;;
14799;SDS011;7491;57.750;11.970;2022-12-18T10:34:55;18.65;;;5.55;;
14799;SDS011;7491;57.750;11.970;2022-12-18T10:37:24;10.18;;;4.55;;
14799;SDS011;7491;57.750;11.970;2022-12-18T10:40:07;17.05;;;5.75;;
14799;SDS011;7491;57.750;11.970;2022-12-18T10:42:37;25.38;;;5.10;;
14799;SDS011;7491;57.750;11.970;2022-12-18T10:45:08;17.25;;;5.53;;
14799;SDS011;7491;57.750;11.970;2022-12-18T10:47:37;23.35;;;5.43;;
14799;SDS011;7491;57.750;11.970;2022-12-18T10:50:17;20.33;;;5.72;;
14799;SDS011;7491;57.750;11.970;2022-12-18T10:52:57;19.63;;;4.65;;
14799;SDS011;7491;57.750;11.970;2022-12-18T10:55:26;21.05;;;5.05;;
14799;SDS011;7491;57.750;11.970;2022-12-18T10:58:24;21.63;;;4.90;;
14799;SDS011;7491;57.750;11.970;2022-12-18T11:01:07;11.60;;;4.93;;
14799;SDS011;7491;57.750;11.970;2022-12-18T11:03:35;17.58;;;5.13;;
14799;SDS011;7491;57.750;11.970;2022-12-18T11:06:06;17.13;;;4.15;;
14799;SDS011;7491;57.750;11.970;2022-12-18T11:08:35;11.57;;;4.55;;
14799;SDS011;7491;57.750;11.970;2022-12-18T11:11:02;22.77;;;4.53;;
14799;SDS011;7491;57.750;11.970;2022-12-18T11:13:31;16.98;;;4.68;;
14799;SDS011;7491;57.750;11.970;2022-12-18T11:15:58;17.27;;;4.78;;
14799;SDS011;7491;57.750;11.970;2022-12-18T11:18:27;16.15;;;4.88;;
14799;SDS011;7491;57.750;11.970;2022-12-18T11:20:55;18.20;;;4.20;;
14799;SDS011;7491;57.750;11.970;2022-12-18T11:23:24;16.02;;;4.22;;
14799;SDS011;7491;57.750;11.970;2022-12-18T11:25:55;12.52;;;3.20;;
14799;SDS011;7491;57.750;11.970;2022-12-18T11:28:25;17.40;;;4.32;;
14799;SDS011;7491;57.750;11.970;2022-12-18T11:33:54;12.85;;;4.07;;
14799;SDS011;7491;57.750;11.970;2022-12-18T11:36:28;20.80;;;4.40;;
14799;SDS011;7491;57.750;11.970;2022-12-18T11:38:59;15.88;;;4.53;;
14799;SDS011;7491;57.750;11.970;2022-12-18T11:41:32;18.92;;;5.32;;
14799;SDS011;7491;57.750;11.970;2022-12-18T11:44:22;27.70;;;8.95;;
14799;SDS011;7491;57.750;11.970;2022-12-18T11:46:55;19.13;;;4.78;;
14799;SDS011;7491;57.750;11.970;2022-12-18T11:49:28;17.38;;;4.95;;
14799;SDS011;7491;57.750;11.970;2022-12-18T11:52:00;24.38;;;6.18;;
14799;SDS011;7491;57.750;11.970;2022-12-18T11:54:32;14.23;;;5.75;;
14799;SDS011;7491;57.750;11.970;2022-12-18T11:57:01;28.80;;;9.82;;
14799;SDS011;7491;57.750;11.970;2022-12-18T11:59:36;21.33;;;5.93;;
14799;SDS011;7491;57.750;11.970;2022-12-18T12:02:20;10.85;;;4.80;;
14799;SDS011;7491;57.750;11.970;2022-12-18T12:05:20;22.88;;;5.53;;
14799;SDS011;7491;57.750;11.970;2022-12-18T12:07:55;14.30;;;5.28;;
14799;SDS011;7491;57.750;11.970;2022-12-18T12:10:34;18.75;;;5.78;;
14799;SDS011;7491;57.750;11.970;2022-12-18T12:16:09;18.25;;;5.85;;
14799;SDS011;7491;57.750;11.970;2022-12-18T12:21:36;16.30;;;4.47;;
14799;SDS011;7491;57.750;11.970;2022-12-18T12:24:11;26.13;;;9.77;;
14799;SDS011;7491;57.750;11.970;2022-12-18T12:26:49;21.63;;;9.00;;
14799;SDS011;7491;57.750;11.970;2022-12-18T12:29:29;18.60;;;5.18;;
14799;SDS011;7491;57.750;11.970;2022-12-18T12:32:07;16.38;;;6.78;;
14799;SDS011;7491;57.750;11.970;2022-12-18T12:34:47;21.30;;;6.47;;
14799;SDS011;7491;57.750;11.970;2022-12-18T12:37:29;15.50;;;6.18;;
14799;SDS011;7491;57.750;11.970;2022-12-18T12:40:05;19.60;;;6.30;;
14799;SDS011;7491;57.750;11.970;2022-12-18T12:42:33;15.27;;;5.00;;
14799;SDS011;7491;57.750;11.970;2022-12-18T12:45:26;15.65;;;5.20;;
14799;SDS011;7491;57.750;11.970;2022-12-18T12:48:00;27.13;;;5.38;;
14799;SDS011;7491;57.750;11.970;2022-12-18T12:50:31;14.68;;;4.53;;
14799;SDS011;7491;57.750;11.970;2022-12-18T12:53:00;17.98;;;5.03;;
14799;SDS011;7491;57.750;11.970;2022-12-18T12:55:32;13.60;;;4.97;;
14799;SDS011;7491;57.750;11.970;2022-12-18T12:58:02;13.25;;;4.68;;
14799;SDS011;7491;57.750;11.970;2022-12-18T13:00:35;20.05;;;5.32;;
14799;SDS011;7491;57.750;11.970;2022-12-18T13:03:15;22.77;;;5.90;;
14799;SDS011;7491;57.750;11.970;2022-12-18T13:05:53;17.02;;;4.70;;
14799;SDS011;7491;57.750;11.970;2022-12-18T13:08:25;16.95;;;4.00;;
14799;SDS011;7491;57.750;11.970;2022-12-18T13:10:53;17.17;;;5.10;;
14799;SDS011;7491;57.750;11.970;2022-12-18T13:13:49;18.08;;;5.10;;
14799;SDS011;7491;57.750;11.970;2022-12-18T13:16:18;19.67;;;5.22;;
14799;SDS011;7491;57.750;11.970;2022-12-18T13:18:49;15.38;;;3.85;;
14799;SDS011;7491;57.750;11.970;2022-12-18T13:21:20;14.68;;;4.80;;
14799;SDS011;7491;57.750;11.970;2022-12-18T13:23:55;13.07;;;4.45;;
14799;SDS011;7491;57.750;11.970;2022-12-18T13:26:30;13.05;;;3.85;;
14799;SDS011;7491;57.750;11.970;2022-12-18T13:28:59;16.45;;;4.47;;
14799;SDS011;7491;57.750;11.970;2022-12-18T13:34:34;20.27;;;7.22;;
14799;SDS011;7491;57.750;11.970;2022-12-18T13:43:22;28.73;;;5.60;;
14799;SDS011;7491;57.750;11.970;2022-12-18T13:45:59;16.98;;;5.05;;
14799;SDS011;7491;57.750;11.970;2022-12-18T13:48:29;15.57;;;4.97;;
14799;SDS011;7491;57.750;11.970;2022-12-18T13:50:59;15.60;;;4.90;;
14799;SDS011;7491;57.750;11.970;2022-12-18T13:53:30;20.75;;;6.00;;
14799;SDS011;7491;57.750;11.970;2022-12-18T13:56:01;13.07;;;5.45;;
14799;SDS011;7491;57.750;11.970;2022-12-18T13:58:30;12.15;;;5.18;;
14799;SDS011;7491;57.750;11.970;2022-12-18T14:00:58;18.30;;;4.47;;
14799;SDS011;7491;57.750;11.970;2022-12-18T14:03:27;17.15;;;5.70;;
14799;SDS011;7491;57.750;11.970;2022-12-18T14:05:57;15.10;;;6.10;;
14799;SDS011;7491;57.750;11.970;2022-12-18T14:08:29;13.13;;;4.65;;
14799;SDS011;7491;57.750;11.970;2022-12-18T14:11:01;20.08;;;5.20;;
14799;SDS011;7491;57.750;11.970;2022-12-18T14:13:32;15.05;;;5.75;;
14799;SDS011;7491;57.750;11.970;2022-12-18T14:16:03;13.85;;;4.68;;
14799;SDS011;7491;57.750;11.970;2022-12-18T14:18:34;15.73;;;4.70;;
14799;SDS011;7491;57.750;11.970;2022-12-18T14:21:14;15.38;;;4.50;;
14799;SDS011;7491;57.750;11.970;2022-12-18T14:23:44;15.65;;;4.25;;
14799;SDS011;7491;57.750;11.970;2022-12-18T14:26:21;13.25;;;4.85;;
14799;SDS011;7491;57.750;11.970;2022-12-18T14:28:53;22.38;;;10.82;;
14799;SDS011;7491;57.750;11.970;2022-12-18T14:31:21;22.48;;;8.88;;
14799;SDS011;7491;57.750;11.970;2022-12-18T14:33:49;18.63;;;6.90;;
14799;SDS011;7491;57.750;11.970;2022-12-18T14:36:17;24.63;;;5.65;;
14799;SDS011;7491;57.750;11.970;2022-12-18T14:38:49;20.10;;;5.70;;
14799;SDS011;7491;57.750;11.970;2022-12-18T14:41:18;11.43;;;4.80;;
14799;SDS011;7491;57.750;11.970;2022-12-18T14:43:48;13.63;;;4.25;;
14799;SDS011;7491;57.750;11.970;2022-12-18T14:46:32;26.38;;;4.88;;
14799;SDS011;7491;57.750;11.970;2022-12-18T14:49:01;27.48;;;10.95;;
14799;SDS011;7491;57.750;11.970;2022-12-18T14:51:31;122.70;;;67.13;;
14799;SDS011;7491;57.750;11.970;2022-12-18T14:53:59;21.45;;;11.68;;
14799;SDS011;7491;57.750;11.970;2022-12-18T14:56:32;47.25;;;26.48;;
14799;SDS011;7491;57.750;11.970;2022-12-18T14:59:01;36.67;;;15.77;;
14799;SDS011;7491;57.750;11.970;2022-12-18T15:01:31;89.43;;;52.53;;
14799;SDS011;7491;57.750;11.970;2022-12-18T15:04:01;32.88;;;16.17;;
14799;SDS011;7491;57.750;11.970;2022-12-18T15:06:30;59.25;;;32.50;;
14799;SDS011;7491;57.750;11.970;2022-12-18T15:08:59;47.22;;;16.95;;